createdAt,value
2022-08-10T00:01:03.119Z,19.21
2022-08-10T00:03:32.452Z,19.14
2022-08-10T00:06:00.685Z,19.10
2022-08-10T00:08:28.937Z,19.03
2022-08-10T00:10:58.493Z,18.99
2022-08-10T00:13:27.771Z,18.97
2022-08-10T00:15:55.825Z,18.97
2022-08-10T00:18:34.310Z,18.87
2022-08-10T00:21:05.578Z,18.87
2022-08-10T00:23:33.604Z,18.84
2022-08-10T00:26:01.533Z,18.79
2022-08-10T00:28:29.496Z,18.79
2022-08-10T00:30:57.674Z,18.76
2022-08-10T00:33:25.543Z,18.69
2022-08-10T00:35:53.632Z,18.73
2022-08-10T00:38:22.967Z,18.69
2022-08-10T00:40:51.024Z,18.69
2022-08-10T00:43:23.247Z,18.68
2022-08-10T00:45:59.159Z,18.53
2022-08-10T00:48:30.407Z,18.61
2022-08-10T00:51:00.426Z,18.56
2022-08-10T00:53:30.785Z,18.48
2022-08-10T00:57:12.393Z,18.47
2022-08-10T00:58:47.832Z,18.46
2022-08-10T01:02:07.475Z,18.45
2022-08-10T01:04:57.308Z,18.44
2022-08-10T01:07:06.775Z,18.44
2022-08-10T01:09:57.092Z,18.37
2022-08-10T01:12:38.631Z,18.40
2022-08-10T01:15:15.588Z,18.24
2022-08-10T01:17:53.542Z,18.20
2022-08-10T01:20:31.406Z,18.13
2022-08-10T01:23:26.885Z,18.09
2022-08-10T01:26:30.740Z,17.99
2022-08-10T01:29:09.415Z,18.01
2022-08-10T01:31:42.685Z,18.03
2022-08-10T01:34:15.809Z,17.98
2022-08-10T01:36:49.818Z,18.05
2022-08-10T01:39:27.605Z,18.02
2022-08-10T01:41:58.228Z,18.03
2022-08-10T01:44:31.713Z,18.07
2022-08-10T01:47:22.210Z,18.10
2022-08-10T01:49:55.093Z,18.07
2022-08-10T01:52:26.969Z,18.11
2022-08-10T01:54:56.508Z,18.11
2022-08-10T01:57:25.796Z,18.13
2022-08-10T02:00:02.082Z,18.12
2022-08-10T02:02:32.814Z,18.11
2022-08-10T02:05:05.095Z,18.10
2022-08-10T02:07:37.775Z,18.04
2022-08-10T02:10:12.037Z,18.03
2022-08-10T02:12:42.262Z,18.03
2022-08-10T02:15:14.318Z,17.97
2022-08-10T02:18:00.466Z,17.97
2022-08-10T02:20:34.126Z,17.93
2022-08-10T02:23:05.760Z,17.92
2022-08-10T02:25:42.567Z,17.87
2022-08-10T02:28:30.621Z,17.72
2022-08-10T02:31:01.665Z,17.67
2022-08-10T02:33:31.531Z,17.72
2022-08-10T02:36:01.706Z,17.77
2022-08-10T02:38:58.526Z,17.79
2022-08-10T02:45:14.851Z,17.84
2022-08-10T02:45:23.854Z,17.79
2022-08-10T02:47:23.640Z,17.74
2022-08-10T02:49:58.480Z,17.77
2022-08-10T02:52:36.398Z,17.72
2022-08-10T02:55:18.060Z,17.76
2022-08-10T02:58:12.596Z,17.68
2022-08-10T03:00:45.515Z,17.67
2022-08-10T03:03:27.304Z,17.67
2022-08-10T03:06:01.532Z,17.58
2022-08-10T03:08:33.437Z,17.57
2022-08-10T03:11:05.912Z,17.56
2022-08-10T03:13:36.082Z,17.51
2022-08-10T03:16:04.931Z,17.53
2022-08-10T03:18:34.350Z,17.56
2022-08-10T03:21:10.090Z,17.55
2022-08-10T03:23:41.582Z,17.57
2022-08-10T03:26:11.707Z,17.57
2022-08-10T03:28:40.367Z,17.57
2022-08-10T03:31:08.558Z,17.55
2022-08-10T03:33:39.644Z,17.48
2022-08-10T03:36:42.356Z,17.51
2022-08-10T03:38:58.357Z,17.49
2022-08-10T03:41:35.554Z,17.52
2022-08-10T03:44:05.843Z,17.55
2022-08-10T03:46:36.374Z,17.48
2022-08-10T03:49:05.946Z,17.48
2022-08-10T03:51:36.643Z,17.45
2022-08-10T03:54:07.515Z,17.46
2022-08-10T03:56:41.007Z,17.50
2022-08-10T03:59:11.422Z,17.47
2022-08-10T04:02:45.243Z,17.45
2022-08-10T04:04:27.612Z,17.43
2022-08-10T04:07:01.827Z,17.41
2022-08-10T04:09:53.381Z,17.33
2022-08-10T04:12:19.715Z,17.31
2022-08-10T04:14:50.358Z,17.42
2022-08-10T04:18:04.864Z,17.47
2022-08-10T04:20:13.071Z,17.49
2022-08-10T04:22:44.833Z,17.51
2022-08-10T04:25:14.083Z,17.50
2022-08-10T04:27:42.547Z,17.52
2022-08-10T04:30:11.655Z,17.51
2022-08-10T04:32:41.201Z,17.49
2022-08-10T04:35:11.234Z,17.48
2022-08-10T04:37:46.886Z,17.51
2022-08-10T04:40:28.401Z,17.52
2022-08-10T04:43:03.381Z,17.49
2022-08-10T04:45:48.678Z,17.50
2022-08-10T04:48:39.991Z,17.51
2022-08-10T04:51:11.219Z,17.55
2022-08-10T04:54:04.206Z,17.60
2022-08-10T04:56:36.900Z,17.66
2022-08-10T04:59:06.304Z,17.74
2022-08-10T05:02:12.504Z,17.83
2022-08-10T05:04:34.048Z,17.83
2022-08-10T05:07:05.918Z,17.76
2022-08-10T05:09:33.939Z,17.82
2022-08-10T05:12:23.669Z,17.80
2022-08-10T05:14:52.706Z,17.94
2022-08-10T05:17:23.194Z,18.00
2022-08-10T05:20:04.813Z,18.14
2022-08-10T05:22:36.399Z,18.24
2022-08-10T05:25:05.848Z,18.29
2022-08-10T05:27:35.374Z,18.29
2022-08-10T05:30:04.183Z,18.40
2022-08-10T05:32:55.455Z,18.48
2022-08-10T05:35:21.078Z,18.57
2022-08-10T05:38:10.951Z,18.68
2022-08-10T05:40:42.482Z,18.76
2022-08-10T05:43:18.100Z,18.84
2022-08-10T05:46:16.857Z,18.94
2022-08-10T05:48:55.465Z,18.99
2022-08-10T05:51:23.334Z,19.07
2022-08-10T05:54:03.207Z,19.12
2022-08-10T05:56:56.843Z,19.20
2022-08-10T06:00:33.688Z,19.33
2022-08-10T06:02:31.138Z,19.45
2022-08-10T06:05:07.451Z,19.52
2022-08-10T06:07:38.494Z,19.61
2022-08-10T06:10:10.140Z,19.69
2022-08-10T06:12:54.184Z,19.77
2022-08-10T06:15:51.966Z,19.86
2022-08-10T06:18:14.811Z,19.96
2022-08-10T06:20:43.590Z,20.04
2022-08-10T06:23:13.652Z,20.12
2022-08-10T06:26:09.589Z,20.32
2022-08-10T06:28:33.860Z,20.37
2022-08-10T06:31:05.404Z,20.44
2022-08-10T06:33:35.759Z,20.53
2022-08-10T06:36:06.251Z,20.54
2022-08-10T06:38:36.169Z,20.60
2022-08-10T06:41:19.882Z,20.73
2022-08-10T06:43:52.973Z,20.85
2022-08-10T06:46:24.678Z,20.93
2022-08-10T06:48:55.824Z,21.06
2022-08-10T06:51:27.223Z,21.19
2022-08-10T06:53:59.508Z,21.32
2022-08-10T06:56:36.687Z,22.52
2022-08-10T06:59:14.613Z,25.04
2022-08-10T07:01:57.861Z,27.21
2022-08-10T07:04:32.291Z,28.27
2022-08-10T07:07:05.114Z,29.19
2022-08-10T07:09:34.433Z,30.29
2022-08-10T07:12:07.558Z,30.38
2022-08-10T07:14:39.623Z,30.87
2022-08-10T07:17:15.188Z,31.85
2022-08-10T07:19:50.187Z,32.21
2022-08-10T07:23:51.796Z,32.35
2022-08-10T07:25:10.705Z,33.25
2022-08-10T07:28:00.675Z,34.19
2022-08-10T07:30:29.946Z,35.01
2022-08-10T07:33:04.427Z,35.06
2022-08-10T07:35:42.900Z,34.74
2022-08-10T07:38:21.664Z,34.95
2022-08-10T07:40:52.023Z,35.53
2022-08-10T07:43:24.363Z,35.00
2022-08-10T07:45:52.536Z,35.49
2022-08-10T07:48:27.480Z,36.43
2022-08-10T07:51:00.392Z,36.72
2022-08-10T07:53:31.809Z,36.92
2022-08-10T07:56:13.285Z,36.84
2022-08-10T07:58:52.600Z,35.85
2022-08-10T08:01:24.543Z,36.31
2022-08-10T08:04:04.996Z,36.97
2022-08-10T08:06:34.830Z,36.86
2022-08-10T08:09:04.498Z,34.94
2022-08-10T08:11:33.586Z,34.00
2022-08-10T08:14:03.164Z,35.14
2022-08-10T08:16:33.326Z,35.23
2022-08-10T08:19:28.062Z,35.64
2022-08-10T08:24:08.725Z,36.39
2022-08-10T08:24:43.023Z,37.28
2022-08-10T08:27:15.191Z,37.60
2022-08-10T08:29:46.022Z,37.96
2022-08-10T08:32:16.855Z,38.14
2022-08-10T08:34:47.478Z,38.60
2022-08-10T08:38:31.322Z,37.38
2022-08-10T08:40:11.354Z,36.63
2022-08-10T08:43:27.373Z,37.05
2022-08-10T08:46:19.773Z,37.84
2022-08-10T08:50:04.403Z,38.69
2022-08-10T08:52:26.209Z,38.97
2022-08-10T08:55:04.099Z,39.08
2022-08-10T08:58:04.288Z,38.44
2022-08-10T09:00:42.197Z,37.83
2022-08-10T09:03:33.394Z,36.35
2022-08-10T09:06:17.132Z,36.34
2022-08-10T09:09:07.246Z,37.98
2022-08-10T09:11:49.266Z,38.48
2022-08-10T09:14:26.130Z,38.41
2022-08-10T09:17:04.817Z,38.77
2022-08-10T09:19:39.632Z,38.92
2022-08-10T09:22:18.687Z,39.20
2022-08-10T09:24:59.540Z,39.50
2022-08-10T09:27:33.912Z,39.26
2022-08-10T09:30:07.920Z,37.93
2022-08-10T09:36:16.929Z,36.79
2022-08-10T09:36:29.832Z,37.13
2022-08-10T09:38:44.130Z,38.21
2022-08-10T09:41:26.252Z,38.31
2022-08-10T09:44:02.504Z,38.17
2022-08-10T09:46:57.291Z,37.67
2022-08-10T09:49:54.315Z,35.15
2022-08-10T09:52:31.324Z,33.17
2022-08-10T09:55:11.253Z,31.11
2022-08-10T09:57:54.914Z,31.52
2022-08-10T10:00:34.618Z,31.59
2022-08-10T10:03:17.317Z,31.76
2022-08-10T10:05:54.679Z,31.73
2022-08-10T10:08:29.608Z,31.28
2022-08-10T10:11:13.120Z,31.41
2022-08-10T10:14:04.020Z,31.12
2022-08-10T10:16:48.796Z,31.23
2022-08-10T10:19:31.866Z,30.61
2022-08-10T10:22:14.576Z,30.56
2022-08-10T10:24:47.315Z,30.43
2022-08-10T10:27:27.770Z,30.28
2022-08-10T10:30:05.219Z,30.57
2022-08-10T10:32:46.102Z,30.86
2022-08-10T10:35:21.924Z,31.10
2022-08-10T10:38:02.134Z,31.37
2022-08-10T10:40:41.270Z,31.35
2022-08-10T10:43:18.267Z,31.22
2022-08-10T10:46:07.508Z,31.25
2022-08-10T10:48:43.756Z,31.13
2022-08-10T10:51:17.704Z,30.95
2022-08-10T10:53:54.204Z,30.78
2022-08-10T10:56:31.343Z,30.68
2022-08-10T10:59:15.358Z,30.60
2022-08-10T11:02:18.948Z,30.36
2022-08-10T11:04:55.235Z,30.34
2022-08-10T11:07:34.005Z,30.30
2022-08-10T11:10:31.497Z,30.35
2022-08-10T11:13:04.686Z,30.03
2022-08-10T11:16:02.489Z,29.97
2022-08-10T11:18:48.781Z,29.53
2022-08-10T11:21:37.822Z,29.22
2022-08-10T11:24:47.006Z,28.63
2022-08-10T11:27:09.989Z,28.82
2022-08-10T11:29:59.079Z,28.17
2022-08-10T11:32:36.319Z,28.06
2022-08-10T11:35:15.879Z,28.18
2022-08-10T11:38:31.085Z,28.47
2022-08-10T11:40:46.302Z,28.30
2022-08-10T11:43:22.056Z,28.31
2022-08-10T11:45:55.993Z,28.07
2022-08-10T11:48:53.723Z,28.07
2022-08-10T11:51:27.771Z,27.69
2022-08-10T11:54:01.495Z,27.64
2022-08-10T11:56:40.465Z,27.75
2022-08-10T11:59:37.917Z,27.89
2022-08-10T12:02:07.632Z,27.70
2022-08-10T12:04:37.103Z,27.75
2022-08-10T12:10:02.626Z,27.83
2022-08-10T12:10:11.506Z,27.87
2022-08-10T12:12:46.898Z,27.83
2022-08-10T12:15:21.009Z,27.94
2022-08-10T12:17:55.914Z,27.96
2022-08-10T12:20:30.021Z,28.01
2022-08-10T12:23:06.816Z,27.99
2022-08-10T12:25:55.996Z,28.01
2022-08-10T12:28:50.250Z,28.09
2022-08-10T12:31:22.689Z,27.97
2022-08-10T12:34:02.184Z,28.01
2022-08-10T12:36:38.479Z,28.18
2022-08-10T12:39:14.881Z,28.22
2022-08-10T12:41:50.335Z,28.28
2022-08-10T12:44:23.835Z,28.28
2022-08-10T12:47:19.225Z,27.79
2022-08-10T12:50:30.910Z,27.75
2022-08-10T12:52:59.448Z,27.83
2022-08-10T12:55:39.231Z,27.96
2022-08-10T12:58:59.221Z,28.10
2022-08-10T13:01:15.765Z,28.02
2022-08-10T13:04:20.343Z,27.94
2022-08-10T13:06:38.679Z,28.07
2022-08-10T13:09:13.953Z,28.19
2022-08-10T13:12:38.214Z,28.20
2022-08-10T13:14:41.367Z,28.29
2022-08-10T13:17:11.201Z,28.22
2022-08-10T13:19:56.003Z,28.14
2022-08-10T13:22:30.446Z,28.28
2022-08-10T13:25:02.596Z,28.25
2022-08-10T13:27:59.837Z,28.28
2022-08-10T13:30:37.811Z,28.33
2022-08-10T13:33:08.550Z,28.44
2022-08-10T13:35:37.587Z,28.44
2022-08-10T13:38:07.477Z,28.55
2022-08-10T13:40:37.484Z,28.52
2022-08-10T13:43:09.897Z,28.58
2022-08-10T13:45:46.415Z,28.63
2022-08-10T13:48:21.324Z,28.69
2022-08-10T13:50:51.466Z,28.73
2022-08-10T13:53:21.933Z,28.74
2022-08-10T13:55:57.301Z,28.63
2022-08-10T13:58:31.090Z,28.66
2022-08-10T14:01:00.973Z,28.47
2022-08-10T14:03:35.543Z,28.59
2022-08-10T14:06:06.897Z,28.65
2022-08-10T14:08:35.417Z,28.37
2022-08-10T14:11:11.281Z,28.15
2022-08-10T14:13:44.398Z,28.11
2022-08-10T14:16:13.997Z,28.31
2022-08-10T14:18:46.181Z,28.47
2022-08-10T14:21:15.028Z,28.45
2022-08-10T14:23:53.273Z,28.58
2022-08-10T14:26:26.175Z,28.54
2022-08-10T14:28:59.299Z,28.59
2022-08-10T14:31:33.603Z,28.56
2022-08-10T14:34:05.486Z,28.57
2022-08-10T14:36:41.739Z,28.57
2022-08-10T14:39:13.070Z,28.59
2022-08-10T14:42:01.714Z,28.61
2022-08-10T14:44:34.503Z,28.60
2022-08-10T14:47:53.597Z,28.70
2022-08-10T14:49:57.355Z,28.39
2022-08-10T14:52:28.558Z,28.55
2022-08-10T14:54:58.083Z,28.71
2022-08-10T14:58:16.656Z,28.73
2022-08-10T15:00:33.111Z,28.65
2022-08-10T15:03:24.667Z,28.77
2022-08-10T15:05:59.098Z,28.77
2022-08-10T15:08:29.479Z,28.75
2022-08-10T15:11:06.457Z,28.73
2022-08-10T15:13:35.582Z,28.70
2022-08-10T15:16:13.146Z,28.75
2022-08-10T15:18:57.597Z,28.81
2022-08-10T15:21:43.014Z,28.83
2022-08-10T15:24:16.219Z,28.74
2022-08-10T15:26:57.428Z,28.62
2022-08-10T15:29:28.125Z,28.69
2022-08-10T15:32:14.827Z,28.49
2022-08-10T15:35:02.597Z,28.61
2022-08-10T15:37:40.063Z,28.67
2022-08-10T15:40:24.655Z,28.72
2022-08-10T15:43:01.384Z,28.75
2022-08-10T15:45:34.859Z,28.81
2022-08-10T15:48:07.777Z,28.73
2022-08-10T15:50:39.967Z,28.69
2022-08-10T15:53:15.903Z,28.82
2022-08-10T15:55:51.696Z,28.79
2022-08-10T15:58:37.563Z,28.78
2022-08-10T16:02:13.026Z,28.82
2022-08-10T16:04:08.584Z,28.86
2022-08-10T16:06:41.487Z,28.87
2022-08-10T16:10:23.156Z,28.84
2022-08-10T16:12:09.490Z,28.80
2022-08-10T16:14:38.771Z,28.82
2022-08-10T16:17:11.764Z,28.72
2022-08-10T16:19:49.784Z,28.70
2022-08-10T16:22:36.767Z,28.71
2022-08-10T16:25:14.138Z,28.63
2022-08-10T16:27:44.117Z,28.48
2022-08-10T16:30:13.377Z,28.54
2022-08-10T16:32:42.389Z,28.51
2022-08-10T16:35:18.328Z,28.57
2022-08-10T16:37:58.180Z,28.47
2022-08-10T16:40:30.273Z,28.46
2022-08-10T16:43:02.168Z,28.38
2022-08-10T16:45:34.309Z,28.42
2022-08-10T16:48:03.113Z,28.47
2022-08-10T16:50:36.592Z,28.44
2022-08-10T16:53:07.875Z,28.41
2022-08-10T16:55:48.284Z,28.38
2022-08-10T16:58:21.957Z,28.31
2022-08-10T17:00:51.536Z,28.27
2022-08-10T17:04:06.436Z,28.28
2022-08-10T17:06:23.586Z,28.28
2022-08-10T17:08:54.946Z,28.20
2022-08-10T17:11:28.475Z,28.18
2022-08-10T17:13:58.060Z,28.23
2022-08-10T17:16:28.862Z,28.21
2022-08-10T17:18:58.856Z,28.17
2022-08-10T17:21:32.354Z,28.10
2022-08-10T17:24:05.200Z,28.03
2022-08-10T17:26:38.311Z,27.96
2022-08-10T17:29:17.278Z,27.89
2022-08-10T17:32:07.465Z,27.97
2022-08-10T17:34:39.909Z,27.93
2022-08-10T17:37:17.085Z,27.90
2022-08-10T17:39:49.879Z,27.82
2022-08-10T17:42:22.271Z,27.78
2022-08-10T17:44:52.900Z,27.75
2022-08-10T17:47:27.101Z,27.71
2022-08-10T17:49:57.825Z,27.70
2022-08-10T17:52:30.296Z,27.69
2022-08-10T17:55:01.936Z,27.64
2022-08-10T17:57:34.601Z,27.57
2022-08-10T18:00:03.898Z,27.57
2022-08-10T18:02:37.740Z,27.47
2022-08-10T18:05:10.602Z,27.42
2022-08-10T18:07:46.636Z,27.37
2022-08-10T18:10:18.692Z,27.29
2022-08-10T18:12:48.856Z,27.13
2022-08-10T18:15:22.129Z,27.08
2022-08-10T18:17:56.962Z,27.00
2022-08-10T18:20:35.833Z,26.95
2022-08-10T18:23:08.224Z,26.92
2022-08-10T18:25:39.257Z,26.84
2022-08-10T18:28:21.027Z,26.81
2022-08-10T18:30:52.206Z,26.69
2022-08-10T18:33:26.787Z,26.67
2022-08-10T18:35:56.697Z,26.54
2022-08-10T18:38:29.390Z,26.38
2022-08-10T18:41:01.797Z,26.31
2022-08-10T18:44:06.374Z,26.24
2022-08-10T18:46:28.805Z,26.20
2022-08-10T18:49:02.452Z,26.15
2022-08-10T18:51:37.460Z,26.06
2022-08-10T18:54:38.830Z,25.98
2022-08-10T18:57:19.020Z,25.93
2022-08-10T19:00:07.432Z,25.78
2022-08-10T19:02:50.861Z,25.69
2022-08-10T19:05:38.059Z,25.65
2022-08-10T19:08:49.045Z,25.57
2022-08-10T19:11:31.988Z,25.48
2022-08-10T19:14:07.687Z,25.34
2022-08-10T19:16:48.861Z,25.34
2022-08-10T19:19:30.273Z,25.27
2022-08-10T19:22:06.009Z,25.23
2022-08-10T19:24:49.418Z,25.16
2022-08-10T19:27:31.765Z,25.10
2022-08-10T19:30:12.927Z,25.05
2022-08-10T19:32:56.168Z,24.97
2022-08-10T19:36:03.769Z,24.87
2022-08-10T19:38:33.529Z,24.84
2022-08-10T19:41:10.899Z,24.80
2022-08-10T19:44:00.092Z,24.73
2022-08-10T19:46:38.748Z,24.70
2022-08-10T19:49:17.356Z,24.62
2022-08-10T19:51:55.063Z,24.61
2022-08-10T19:54:30.815Z,24.52
2022-08-10T19:57:06.445Z,24.45
2022-08-10T20:00:15.611Z,24.42
2022-08-10T20:02:48.254Z,24.32
2022-08-10T20:05:27.183Z,24.31
2022-08-10T20:07:59.229Z,24.20
2022-08-10T20:10:36.299Z,24.10
2022-08-10T20:13:14.084Z,24.11
2022-08-10T20:15:47.553Z,24.02
2022-08-10T20:18:24.371Z,24.04
2022-08-10T20:21:04.857Z,23.95
2022-08-10T20:23:36.752Z,23.87
2022-08-10T20:26:14.365Z,23.81
2022-08-10T20:28:58.986Z,23.77
2022-08-10T20:31:42.236Z,23.68
2022-08-10T20:34:20.672Z,23.56
2022-08-10T20:36:59.831Z,23.59
2022-08-10T20:39:47.751Z,23.53
2022-08-10T20:42:22.745Z,23.48
2022-08-10T20:45:03.465Z,23.43
2022-08-10T20:47:57.710Z,23.29
2022-08-10T20:50:35.821Z,23.29
2022-08-10T20:53:09.767Z,23.21
2022-08-10T20:55:53.937Z,23.20
2022-08-10T20:58:36.937Z,23.14
2022-08-10T21:01:17.090Z,23.13
2022-08-10T21:04:13.611Z,23.08
2022-08-10T21:07:05.636Z,22.99
2022-08-10T21:09:51.268Z,22.96
2022-08-10T21:12:51.827Z,22.90
2022-08-10T21:15:29.422Z,22.88
2022-08-10T21:18:20.528Z,22.91
2022-08-10T21:21:16.789Z,22.68
2022-08-10T21:23:51.898Z,22.59
2022-08-10T21:26:40.154Z,22.63
2022-08-10T21:29:21.599Z,22.64
2022-08-10T21:32:03.463Z,22.54
2022-08-10T21:34:52.163Z,22.50
2022-08-10T21:37:40.072Z,22.45
2022-08-10T21:41:17.120Z,22.32
2022-08-10T21:44:04.990Z,22.27
2022-08-10T21:47:02.769Z,22.24
2022-08-10T21:49:57.294Z,22.19
2022-08-10T21:53:04.457Z,22.19
2022-08-10T21:56:02.857Z,22.14
2022-08-10T21:58:54.922Z,22.09
2022-08-10T22:01:53.247Z,22.07
2022-08-10T22:04:40.219Z,22.05
2022-08-10T22:07:36.103Z,21.87
2022-08-10T22:10:25.876Z,21.89
2022-08-10T22:13:13.599Z,21.84
2022-08-10T22:16:11.024Z,21.82
2022-08-10T22:19:02.455Z,21.84
2022-08-10T22:22:02.037Z,21.78
2022-08-10T22:25:17.140Z,21.69
2022-08-10T22:28:12.369Z,21.78
2022-08-10T22:34:24.896Z,21.64
2022-08-10T22:37:36.237Z,21.67
2022-08-10T22:40:25.774Z,21.63
2022-08-10T22:43:15.915Z,21.64
2022-08-10T22:46:23.254Z,21.60
2022-08-10T22:49:02.268Z,21.61
2022-08-10T22:51:39.292Z,21.58
2022-08-10T22:54:32.841Z,21.52
2022-08-10T22:57:20.046Z,21.52
2022-08-10T22:59:50.842Z,21.42
2022-08-10T23:02:33.225Z,21.47
2022-08-10T23:05:09.255Z,21.48
2022-08-10T23:07:46.645Z,21.48
2022-08-10T23:10:17.528Z,21.45
2022-08-10T23:12:51.023Z,21.42
2022-08-10T23:15:43.821Z,21.40
2022-08-10T23:18:33.474Z,21.34
2022-08-10T23:21:03.517Z,21.33
2022-08-10T23:23:40.262Z,21.27
2022-08-10T23:26:11.547Z,21.23
2022-08-10T23:28:58.509Z,21.19
2022-08-10T23:32:00.685Z,21.10
2022-08-10T23:34:26.360Z,21.15
2022-08-10T23:36:57.295Z,21.13
2022-08-10T23:39:31.462Z,21.13
2022-08-10T23:42:07.569Z,21.04
2022-08-10T23:44:43.801Z,21.04
2022-08-10T23:47:17.212Z,21.06
2022-08-10T23:49:46.460Z,21.00
2022-08-10T23:52:16.810Z,21.01
2022-08-10T23:54:49.731Z,20.95
2022-08-10T23:57:21.362Z,20.98
2022-08-10T23:59:56.408Z,20.94
